CFG1TK EDDF-LGKL
Flight info
| Callsign | CFG1TK |
|---|---|
| Flight time | N/A |
| Altitude | 35000 |
| Route | CINDY8S/18 CINDY Z74 LAMPU DCT NOMBO Y161 MAH DCT VAVOR DCT RADIZ DCT RILIM DCT NOSTO UL612 TRL Y115 IPTAG |
| Aircraft | A321/M-SDE3FGHIJ1LORVWXYZ/LB1D1 |
Departure
| Time | 2026-05-01 13:27 |
|---|---|
| Airport | Frankfurt Main Airport (EDDF) |
Arrival
| Time | N/A |
|---|---|
| Airport | Kalamata Airport (LGKL) |
| Time | Latitude | Longitude | Altitude | Speed | Heading |
|---|---|---|---|---|---|
| 2026-05-01 11:50 | 50.04763 | 8.58239 | 362 ft | 0 kts | 159° |
| 2026-05-01 13:15 | 50.04770 | 8.58235 | 362 ft | 4 kts | 159° |
| 2026-05-01 13:15 | 50.04795 | 8.58221 | 361 ft | 3 kts | 159° |
| 2026-05-01 13:15 | 50.04816 | 8.58210 | 360 ft | 4 kts | 176° |
| 2026-05-01 13:16 | 50.04839 | 8.58218 | 360 ft | 4 kts | 228° |
| 2026-05-01 13:16 | 50.04850 | 8.58252 | 363 ft | 4 kts | 249° |
| 2026-05-01 13:16 | 50.04858 | 8.58285 | 363 ft | 1 kts | 249° |
| 2026-05-01 13:17 | 50.04858 | 8.58286 | 359 ft | 0 kts | 249° |
| 2026-05-01 13:18 | 50.04856 | 8.58274 | 359 ft | 4 kts | 250° |
| 2026-05-01 13:18 | 50.04834 | 8.58185 | 364 ft | 12 kts | 250° |
| 2026-05-01 13:18 | 50.04804 | 8.58058 | 362 ft | 13 kts | 250° |
| 2026-05-01 13:19 | 50.04755 | 8.57958 | 358 ft | 11 kts | 222° |
| 2026-05-01 13:19 | 50.04740 | 8.57936 | 358 ft | 10 kts | 222° |
| 2026-05-01 13:19 | 50.04669 | 8.57739 | 363 ft | 18 kts | 250° |
| 2026-05-01 13:20 | 50.04628 | 8.57566 | 360 ft | 17 kts | 250° |
| 2026-05-01 13:20 | 50.04574 | 8.57339 | 359 ft | 27 kts | 249° |
| 2026-05-01 13:20 | 50.04505 | 8.57056 | 359 ft | 27 kts | 250° |
| 2026-05-01 13:21 | 50.04383 | 8.56542 | 362 ft | 25 kts | 250° |
| 2026-05-01 13:21 | 50.04324 | 8.56298 | 362 ft | 24 kts | 249° |
| 2026-05-01 13:21 | 50.04269 | 8.56063 | 362 ft | 23 kts | 250° |
| 2026-05-01 13:21 | 50.04215 | 8.55838 | 353 ft | 23 kts | 249° |
| 2026-05-01 13:22 | 50.04151 | 8.55571 | 354 ft | 27 kts | 250° |
| 2026-05-01 13:22 | 50.04088 | 8.55302 | 357 ft | 25 kts | 250° |
| 2026-05-01 13:22 | 50.04028 | 8.55055 | 357 ft | 24 kts | 249° |
| 2026-05-01 13:22 | 50.03971 | 8.54820 | 355 ft | 23 kts | 249° |
| 2026-05-01 13:23 | 50.03916 | 8.54587 | 350 ft | 23 kts | 250° |
| 2026-05-01 13:23 | 50.03875 | 8.54414 | 352 ft | 13 kts | 248° |
| 2026-05-01 13:23 | 50.03827 | 8.54297 | 346 ft | 12 kts | 235° |
| 2026-05-01 13:23 | 50.03785 | 8.54161 | 351 ft | 18 kts | 249° |
| 2026-05-01 13:24 | 50.03730 | 8.53931 | 347 ft | 27 kts | 250° |
| 2026-05-01 13:24 | 50.03663 | 8.53653 | 351 ft | 27 kts | 249° |
| 2026-05-01 13:24 | 50.03596 | 8.53383 | 337 ft | 26 kts | 249° |
| 2026-05-01 13:25 | 50.03472 | 8.52878 | 335 ft | 19 kts | 247° |
| 2026-05-01 13:25 | 50.03438 | 8.52747 | 336 ft | 12 kts | 249° |
| 2026-05-01 13:25 | 50.03412 | 8.52642 | 334 ft | 8 kts | 252° |
| 2026-05-01 13:25 | 50.03390 | 8.52593 | 334 ft | 5 kts | 190° |
| 2026-05-01 13:26 | 50.03297 | 8.52595 | 332 ft | 38 kts | 179° |
| 2026-05-01 13:26 | 50.02794 | 8.52599 | 331 ft | 104 kts | 179° |
| 2026-05-01 13:26 | 50.01890 | 8.52610 | 335 ft | 153 kts | 179° |
| 2026-05-01 13:26 | 50.00702 | 8.52608 | 482 ft | 176 kts | 180° |
| 2026-05-01 13:27 | 49.99546 | 8.52594 | 1389 ft | 159 kts | 174° |
| 2026-05-01 13:27 | 49.98428 | 8.52603 | 1911 ft | 168 kts | 173° |
| 2026-05-01 13:27 | 49.96194 | 8.54227 | 2215 ft | 200 kts | 126° |
| 2026-05-01 13:28 | 49.94642 | 8.58364 | 2658 ft | 243 kts | 119° |
| 2026-05-01 13:28 | 49.93800 | 8.60679 | 3490 ft | 249 kts | 120° |
| 2026-05-01 13:29 | 49.92004 | 8.65325 | 5172 ft | 255 kts | 123° |
| 2026-05-01 13:29 | 49.90120 | 8.70081 | 6710 ft | 262 kts | 123° |
| 2026-05-01 13:30 | 49.86224 | 8.79968 | 9593 ft | 273 kts | 123° |
| 2026-05-01 13:31 | 49.84223 | 8.85076 | 10686 ft | 291 kts | 122° |
| 2026-05-01 13:31 | 49.80696 | 8.94023 | 11331 ft | 347 kts | 122° |
| 2026-05-01 13:32 | 49.78170 | 9.00428 | 12543 ft | 354 kts | 122° |
| 2026-05-01 13:33 | 49.74254 | 9.10304 | 14431 ft | 363 kts | 121° |
| 2026-05-01 13:33 | 49.71599 | 9.16973 | 15571 ft | 368 kts | 121° |
| 2026-05-01 13:34 | 49.68889 | 9.23788 | 16568 ft | 376 kts | 121° |
| 2026-05-01 13:34 | 49.66130 | 9.30711 | 17656 ft | 381 kts | 121° |
| 2026-05-01 13:35 | 49.63308 | 9.37697 | 18673 ft | 387 kts | 124° |
| 2026-05-01 13:35 | 49.61582 | 9.40899 | 19094 ft | 391 kts | 134° |
| 2026-05-01 13:35 | 49.57099 | 9.45803 | 19862 ft | 401 kts | 148° |
| 2026-05-01 13:36 | 49.54685 | 9.47997 | 20281 ft | 405 kts | 148° |
| 2026-05-01 13:36 | 49.52249 | 9.50210 | 20706 ft | 407 kts | 148° |
| 2026-05-01 13:36 | 49.47336 | 9.54686 | 21523 ft | 413 kts | 148° |
| 2026-05-01 13:37 | 49.44856 | 9.56950 | 21958 ft | 416 kts | 147° |
| 2026-05-01 13:37 | 49.43211 | 9.58451 | 22242 ft | 417 kts | 147° |
| 2026-05-01 13:37 | 49.39851 | 9.61505 | 22809 ft | 421 kts | 147° |
| 2026-05-01 13:37 | 49.37316 | 9.63804 | 23207 ft | 425 kts | 148° |
| 2026-05-01 13:38 | 49.32504 | 9.69088 | 23940 ft | 428 kts | 133° |
| 2026-05-01 13:38 | 49.30389 | 9.72330 | 24239 ft | 432 kts | 134° |
| 2026-05-01 13:38 | 49.28260 | 9.75594 | 24581 ft | 434 kts | 133° |
| 2026-05-01 13:39 | 49.26121 | 9.78863 | 24923 ft | 436 kts | 133° |
| 2026-05-01 13:39 | 49.23968 | 9.82148 | 25238 ft | 439 kts | 134° |
| 2026-05-01 13:39 | 49.21795 | 9.85454 | 25517 ft | 442 kts | 133° |
| 2026-05-01 13:39 | 49.19612 | 9.88771 | 25831 ft | 444 kts | 133° |
| 2026-05-01 13:40 | 49.17412 | 9.92105 | 26155 ft | 446 kts | 133° |
| 2026-05-01 13:40 | 49.15202 | 9.95450 | 26472 ft | 449 kts | 134° |
| 2026-05-01 13:40 | 49.12978 | 9.98810 | 26777 ft | 451 kts | 134° |
| 2026-05-01 13:40 | 49.10746 | 10.02186 | 27076 ft | 453 kts | 133° |
| 2026-05-01 13:41 | 49.08497 | 10.05582 | 27369 ft | 455 kts | 133° |
| 2026-05-01 13:41 | 49.06238 | 10.08990 | 27636 ft | 458 kts | 133° |
| 2026-05-01 13:41 | 49.03943 | 10.12376 | 27945 ft | 461 kts | 135° |
| 2026-05-01 13:41 | 49.01599 | 10.15722 | 28248 ft | 463 kts | 135° |
| 2026-05-01 13:42 | 48.99219 | 10.19045 | 28532 ft | 465 kts | 136° |
| 2026-05-01 13:42 | 48.96811 | 10.22377 | 28828 ft | 467 kts | 136° |
| 2026-05-01 13:42 | 48.94406 | 10.25711 | 29200 ft | 467 kts | 135° |
| 2026-05-01 13:42 | 48.92049 | 10.29004 | 29587 ft | 467 kts | 135° |
| 2026-05-01 13:43 | 48.89663 | 10.32363 | 29964 ft | 466 kts | 135° |
| 2026-05-01 13:43 | 48.87293 | 10.35713 | 30376 ft | 465 kts | 134° |
| 2026-05-01 13:43 | 48.84926 | 10.39060 | 30679 ft | 465 kts | 135° |
| 2026-05-01 13:43 | 48.82560 | 10.42416 | 30993 ft | 465 kts | 134° |
| 2026-05-01 13:44 | 48.80265 | 10.45857 | 31327 ft | 463 kts | 132° |
| 2026-05-01 13:44 | 48.78756 | 10.48235 | 31558 ft | 463 kts | 131° |
| 2026-05-01 13:44 | 48.76563 | 10.51799 | 31883 ft | 462 kts | 130° |
| 2026-05-01 13:44 | 48.74393 | 10.55383 | 32233 ft | 461 kts | 130° |
| 2026-05-01 13:45 | 48.72226 | 10.58962 | 32585 ft | 460 kts | 130° |
| 2026-05-01 13:45 | 48.70082 | 10.62464 | 32918 ft | 459 kts | 130° |
| 2026-05-01 13:45 | 48.67892 | 10.65985 | 33253 ft | 459 kts | 131° |
| 2026-05-01 13:45 | 48.65696 | 10.69480 | 33602 ft | 458 kts | 131° |
| 2026-05-01 13:46 | 48.63494 | 10.72961 | 33920 ft | 457 kts | 131° |
| 2026-05-01 13:46 | 48.61293 | 10.76431 | 34244 ft | 457 kts | 131° |
| 2026-05-01 13:46 | 48.59093 | 10.79899 | 34539 ft | 456 kts | 131° |
| 2026-05-01 13:46 | 48.56905 | 10.83357 | 34797 ft | 456 kts | 131° |
| 2026-05-01 13:47 | 48.54728 | 10.86824 | 35050 ft | 455 kts | 131° |
| 2026-05-01 13:47 | 48.52555 | 10.90300 | 35268 ft | 455 kts | 130° |
| 2026-05-01 13:47 | 48.50389 | 10.93775 | 35353 ft | 453 kts | 130° |
| 2026-05-01 13:48 | 48.46062 | 11.00644 | 35354 ft | 452 kts | 131° |
| 2026-05-01 13:48 | 48.41692 | 11.07447 | 35354 ft | 452 kts | 131° |
| 2026-05-01 13:49 | 48.37310 | 11.14224 | 35353 ft | 452 kts | 131° |
| 2026-05-01 13:49 | 48.32935 | 11.20988 | 35345 ft | 451 kts | 131° |
| 2026-05-01 13:50 | 48.28555 | 11.27749 | 35345 ft | 451 kts | 131° |
| 2026-05-01 13:50 | 48.24804 | 11.35176 | 35335 ft | 444 kts | 116° |
| 2026-05-01 13:51 | 48.21729 | 11.43228 | 35330 ft | 445 kts | 117° |
| 2026-05-01 13:51 | 48.18617 | 11.51235 | 35329 ft | 445 kts | 117° |
| 2026-05-01 13:52 | 48.15499 | 11.59230 | 35332 ft | 444 kts | 117° |
| 2026-05-01 13:52 | 48.12386 | 11.67222 | 35356 ft | 444 kts | 117° |
| 2026-05-01 13:53 | 48.09271 | 11.75213 | 35355 ft | 444 kts | 117° |
| 2026-05-01 13:53 | 48.04594 | 11.87181 | 35348 ft | 445 kts | 117° |
| 2026-05-01 13:54 | 48.01451 | 11.95137 | 35342 ft | 444 kts | 117° |
| 2026-05-01 13:54 | 47.98312 | 12.03085 | 35365 ft | 444 kts | 117° |
| 2026-05-01 13:55 | 47.95178 | 12.11019 | 35362 ft | 443 kts | 117° |
| 2026-05-01 13:55 | 47.91270 | 12.18178 | 35347 ft | 451 kts | 135° |
| 2026-05-01 13:56 | 47.86457 | 12.24186 | 35331 ft | 452 kts | 136° |
| 2026-05-01 13:56 | 47.81645 | 12.30202 | 35325 ft | 452 kts | 136° |
| 2026-05-01 13:57 | 47.76866 | 12.36167 | 35331 ft | 452 kts | 136° |
| 2026-05-01 13:57 | 47.72050 | 12.42166 | 35326 ft | 452 kts | 136° |
| 2026-05-01 13:58 | 47.67225 | 12.48160 | 35310 ft | 452 kts | 136° |
| 2026-05-01 13:58 | 47.62366 | 12.54080 | 35308 ft | 454 kts | 141° |
| 2026-05-01 13:59 | 47.57049 | 12.59194 | 35313 ft | 456 kts | 144° |
| 2026-05-01 13:59 | 47.51723 | 12.64260 | 35317 ft | 455 kts | 143° |
| 2026-05-01 14:00 | 47.46384 | 12.69343 | 35310 ft | 456 kts | 143° |
| 2026-05-01 14:00 | 47.41042 | 12.74421 | 35313 ft | 457 kts | 143° |
| 2026-05-01 14:01 | 47.35682 | 12.79489 | 35307 ft | 458 kts | 143° |
| 2026-05-01 14:01 | 47.30315 | 12.84544 | 35302 ft | 458 kts | 143° |
| 2026-05-01 14:02 | 47.24949 | 12.89590 | 35305 ft | 458 kts | 143° |
| 2026-05-01 14:02 | 47.19570 | 12.94638 | 35316 ft | 459 kts | 143° |
| 2026-05-01 14:03 | 47.14225 | 12.99648 | 35303 ft | 459 kts | 143° |
| 2026-05-01 14:03 | 47.08838 | 13.04690 | 35302 ft | 459 kts | 143° |
| 2026-05-01 14:04 | 47.03443 | 13.09719 | 35312 ft | 460 kts | 143° |
| 2026-05-01 14:04 | 46.98919 | 13.13920 | 35314 ft | 460 kts | 143° |
| 2026-05-01 14:05 | 46.92643 | 13.19744 | 35333 ft | 459 kts | 143° |
| 2026-05-01 14:05 | 46.87238 | 13.24745 | 35318 ft | 459 kts | 143° |
| 2026-05-01 14:06 | 46.81831 | 13.29732 | 35312 ft | 460 kts | 143° |
| 2026-05-01 14:06 | 46.76419 | 13.34715 | 35315 ft | 460 kts | 143° |
| 2026-05-01 14:07 | 46.71009 | 13.39689 | 35315 ft | 460 kts | 143° |
| 2026-05-01 14:08 | 46.62891 | 13.47131 | 35360 ft | 460 kts | 142° |
| 2026-05-01 14:08 | 46.57469 | 13.52074 | 35318 ft | 460 kts | 143° |
| 2026-05-01 14:09 | 46.52040 | 13.57011 | 35335 ft | 460 kts | 143° |
| 2026-05-01 14:09 | 46.46621 | 13.61940 | 35333 ft | 459 kts | 143° |
| 2026-05-01 14:10 | 46.41203 | 13.66864 | 35330 ft | 460 kts | 143° |
| 2026-05-01 14:10 | 46.35779 | 13.71778 | 35332 ft | 460 kts | 143° |
| 2026-05-01 14:11 | 46.30344 | 13.76676 | 35350 ft | 461 kts | 142° |
| 2026-05-01 14:11 | 46.22172 | 13.84019 | 35341 ft | 462 kts | 142° |
| 2026-05-01 14:12 | 46.16720 | 13.88918 | 35324 ft | 462 kts | 142° |
| 2026-05-01 14:12 | 46.11293 | 13.93767 | 35328 ft | 462 kts | 142° |
| 2026-05-01 14:13 | 46.06722 | 13.97848 | 35317 ft | 462 kts | 142° |
| 2026-05-01 14:13 | 46.00375 | 14.03516 | 35335 ft | 462 kts | 141° |
| 2026-05-01 14:14 | 45.94898 | 14.08386 | 35329 ft | 463 kts | 142° |
| 2026-05-01 14:14 | 45.89418 | 14.13243 | 35325 ft | 463 kts | 142° |
| 2026-05-01 14:15 | 45.83933 | 14.18095 | 35323 ft | 463 kts | 142° |
| 2026-05-01 14:15 | 45.78447 | 14.22934 | 35325 ft | 463 kts | 142° |
| 2026-05-01 14:16 | 45.72964 | 14.27760 | 35357 ft | 463 kts | 142° |
| 2026-05-01 14:16 | 45.67471 | 14.32578 | 35347 ft | 463 kts | 142° |
| 2026-05-01 14:17 | 45.61984 | 14.37393 | 35350 ft | 463 kts | 142° |
| 2026-05-01 14:17 | 45.56485 | 14.42205 | 35547 ft | 465 kts | 142° |
| 2026-05-01 14:18 | 45.53725 | 14.44613 | 35788 ft | 465 kts | 142° |
| 2026-05-01 14:18 | 45.50962 | 14.47021 | 36021 ft | 465 kts | 142° |
| 2026-05-01 14:18 | 45.48199 | 14.49423 | 36238 ft | 466 kts | 142° |
| 2026-05-01 14:18 | 45.46369 | 14.51011 | 36382 ft | 466 kts | 142° |
| 2026-05-01 14:19 | 45.42663 | 14.54224 | 36702 ft | 466 kts | 142° |
| 2026-05-01 14:19 | 45.39893 | 14.56625 | 36888 ft | 466 kts | 142° |
| 2026-05-01 14:19 | 45.37125 | 14.59024 | 37094 ft | 466 kts | 142° |
| 2026-05-01 14:19 | 45.34357 | 14.61423 | 37270 ft | 467 kts | 142° |
| 2026-05-01 14:20 | 45.26025 | 14.68618 | 37300 ft | 467 kts | 142° |
| 2026-05-01 14:21 | 45.20501 | 14.73376 | 37322 ft | 467 kts | 142° |
| 2026-05-01 14:21 | 45.14943 | 14.78147 | 37310 ft | 467 kts | 142° |
| 2026-05-01 14:22 | 45.06586 | 14.85305 | 37316 ft | 468 kts | 142° |
| 2026-05-01 14:22 | 45.01002 | 14.90072 | 37328 ft | 469 kts | 142° |
| 2026-05-01 14:23 | 44.95413 | 14.94827 | 37347 ft | 468 kts | 142° |
| 2026-05-01 14:23 | 44.89843 | 14.99572 | 37323 ft | 468 kts | 142° |
| 2026-05-01 14:24 | 44.84267 | 15.04310 | 37322 ft | 468 kts | 142° |
| 2026-05-01 14:24 | 44.78691 | 15.09030 | 37320 ft | 468 kts | 142° |
| 2026-05-01 14:25 | 44.73111 | 15.13744 | 37316 ft | 468 kts | 142° |
| 2026-05-01 14:25 | 44.67517 | 15.18458 | 37306 ft | 469 kts | 142° |
| 2026-05-01 14:26 | 44.59115 | 15.25518 | 37330 ft | 470 kts | 142° |
| 2026-05-01 14:27 | 44.53504 | 15.30221 | 37332 ft | 470 kts | 143° |
| 2026-05-01 14:27 | 44.47886 | 15.34906 | 37317 ft | 471 kts | 143° |
| 2026-05-01 14:28 | 44.39441 | 15.41947 | 37301 ft | 471 kts | 143° |
| 2026-05-01 14:28 | 44.33814 | 15.46616 | 37300 ft | 471 kts | 143° |
| 2026-05-01 14:29 | 44.28182 | 15.51288 | 37305 ft | 471 kts | 144° |
| 2026-05-01 14:30 | 44.17844 | 15.59846 | 37285 ft | 472 kts | 144° |
| 2026-05-01 14:31 | 44.09355 | 15.66828 | 37277 ft | 472 kts | 144° |
| 2026-05-01 14:31 | 44.03694 | 15.71477 | 37311 ft | 472 kts | 145° |
| 2026-05-01 14:32 | 43.98042 | 15.76103 | 37294 ft | 472 kts | 145° |
| 2026-05-01 14:32 | 43.92390 | 15.80724 | 37282 ft | 471 kts | 145° |
| 2026-05-01 14:33 | 43.86740 | 15.85333 | 37260 ft | 471 kts | 146° |
| 2026-05-01 14:33 | 43.81090 | 15.89934 | 37264 ft | 471 kts | 146° |
| 2026-05-01 14:34 | 43.75439 | 15.94525 | 37253 ft | 471 kts | 146° |
| 2026-05-01 14:34 | 43.69818 | 15.99077 | 37255 ft | 471 kts | 146° |
| 2026-05-01 14:35 | 43.64149 | 16.03660 | 37268 ft | 472 kts | 146° |
| 2026-05-01 14:35 | 43.58484 | 16.08228 | 37244 ft | 472 kts | 146° |
| 2026-05-01 14:36 | 43.52818 | 16.12790 | 37237 ft | 471 kts | 146° |
| 2026-05-01 14:36 | 43.47150 | 16.17341 | 37236 ft | 471 kts | 146° |
| 2026-05-01 14:37 | 43.41482 | 16.21882 | 37227 ft | 472 kts | 146° |
| 2026-05-01 14:37 | 43.35796 | 16.26441 | 37213 ft | 474 kts | 146° |
| 2026-05-01 14:38 | 43.30090 | 16.30996 | 37211 ft | 474 kts | 146° |
| 2026-05-01 14:38 | 43.24381 | 16.35535 | 37233 ft | 475 kts | 147° |
| 2026-05-01 14:39 | 43.18656 | 16.40079 | 37226 ft | 476 kts | 147° |
| 2026-05-01 14:39 | 43.12926 | 16.44634 | 37210 ft | 476 kts | 147° |
| 2026-05-01 14:40 | 43.07182 | 16.49186 | 37205 ft | 477 kts | 147° |
| 2026-05-01 14:40 | 43.01430 | 16.53713 | 37200 ft | 477 kts | 148° |
| 2026-05-01 14:41 | 42.95717 | 16.58212 | 37212 ft | 477 kts | 148° |
| 2026-05-01 14:41 | 42.89966 | 16.62731 | 37219 ft | 477 kts | 148° |
| 2026-05-01 14:42 | 42.84207 | 16.67240 | 37225 ft | 477 kts | 148° |
| 2026-05-01 14:42 | 42.78450 | 16.71745 | 37237 ft | 478 kts | 149° |
| 2026-05-01 14:43 | 42.72682 | 16.76246 | 37216 ft | 478 kts | 149° |
| 2026-05-01 14:43 | 42.66905 | 16.80746 | 37214 ft | 479 kts | 149° |
| 2026-05-01 14:44 | 42.61149 | 16.85291 | 37216 ft | 479 kts | 148° |
| 2026-05-01 14:44 | 42.52573 | 16.92271 | 37208 ft | 479 kts | 148° |
| 2026-05-01 14:45 | 42.43966 | 16.99222 | 37201 ft | 481 kts | 148° |
| 2026-05-01 14:46 | 42.38198 | 17.03828 | 37204 ft | 481 kts | 148° |
| 2026-05-01 14:46 | 42.29551 | 17.10734 | 37178 ft | 482 kts | 149° |
| 2026-05-01 14:47 | 42.23767 | 17.15344 | 37174 ft | 483 kts | 149° |
| 2026-05-01 14:48 | 42.15074 | 17.22260 | 37197 ft | 484 kts | 149° |
| 2026-05-01 14:48 | 42.06425 | 17.29127 | 37182 ft | 484 kts | 150° |
| 2026-05-01 14:49 | 41.94809 | 17.38282 | 37169 ft | 485 kts | 150° |
| 2026-05-01 14:50 | 41.83167 | 17.47434 | 37176 ft | 484 kts | 150° |
| 2026-05-01 14:51 | 41.74450 | 17.54286 | 37192 ft | 484 kts | 150° |
| 2026-05-01 14:52 | 41.65729 | 17.61091 | 37180 ft | 483 kts | 150° |
| 2026-05-01 14:53 | 41.57000 | 17.67879 | 37169 ft | 484 kts | 152° |
| 2026-05-01 14:53 | 41.51175 | 17.72393 | 37169 ft | 484 kts | 151° |
| 2026-05-01 14:54 | 41.45345 | 17.76899 | 37177 ft | 484 kts | 152° |
| 2026-05-01 14:54 | 41.39517 | 17.81410 | 37176 ft | 484 kts | 152° |
| 2026-05-01 14:55 | 41.33721 | 17.85879 | 37172 ft | 485 kts | 152° |
| 2026-05-01 14:55 | 41.27887 | 17.90375 | 37172 ft | 485 kts | 152° |
| 2026-05-01 14:56 | 41.22051 | 17.94878 | 37169 ft | 485 kts | 152° |
| 2026-05-01 14:56 | 41.16210 | 17.99353 | 37158 ft | 485 kts | 153° |
| 2026-05-01 14:57 | 41.10366 | 18.03811 | 37158 ft | 485 kts | 153° |
| 2026-05-01 14:57 | 41.01601 | 18.10514 | 37151 ft | 485 kts | 152° |
| 2026-05-01 14:58 | 40.95753 | 18.14965 | 37158 ft | 485 kts | 153° |
| 2026-05-01 14:58 | 40.89896 | 18.19401 | 37133 ft | 486 kts | 153° |
| 2026-05-01 14:59 | 40.84029 | 18.23850 | 37141 ft | 486 kts | 153° |
| 2026-05-01 14:59 | 40.78154 | 18.28301 | 37135 ft | 487 kts | 153° |
| 2026-05-01 15:00 | 40.69333 | 18.34953 | 37130 ft | 488 kts | 153° |
| 2026-05-01 15:01 | 40.63439 | 18.39388 | 37132 ft | 489 kts | 153° |
| 2026-05-01 15:01 | 40.57570 | 18.43802 | 37130 ft | 489 kts | 154° |
| 2026-05-01 15:02 | 40.51655 | 18.48236 | 37137 ft | 489 kts | 154° |
| 2026-05-01 15:02 | 40.45695 | 18.52677 | 37122 ft | 489 kts | 154° |
| 2026-05-01 15:03 | 40.39815 | 18.57066 | 37130 ft | 490 kts | 154° |
| 2026-05-01 15:03 | 40.33890 | 18.61487 | 37122 ft | 490 kts | 154° |
| 2026-05-01 15:04 | 40.27968 | 18.65899 | 37125 ft | 490 kts | 154° |
| 2026-05-01 15:04 | 40.22039 | 18.70297 | 37099 ft | 490 kts | 155° |
| 2026-05-01 15:05 | 40.16070 | 18.74712 | 37090 ft | 490 kts | 155° |
| 2026-05-01 15:05 | 40.10171 | 18.79075 | 37107 ft | 490 kts | 155° |
| 2026-05-01 15:06 | 40.04225 | 18.83456 | 37094 ft | 491 kts | 155° |
| 2026-05-01 15:06 | 39.98280 | 18.87843 | 37066 ft | 491 kts | 155° |
| 2026-05-01 15:07 | 39.92337 | 18.92214 | 37076 ft | 490 kts | 155° |
| 2026-05-01 15:07 | 39.86390 | 18.96559 | 37078 ft | 490 kts | 156° |
| 2026-05-01 15:08 | 39.80737 | 19.01592 | 37070 ft | 499 kts | 140° |
| 2026-05-01 15:08 | 39.76039 | 19.08286 | 37068 ft | 502 kts | 134° |
| 2026-05-01 15:09 | 39.71424 | 19.15112 | 37039 ft | 503 kts | 135° |
| 2026-05-01 15:09 | 39.66786 | 19.21923 | 37045 ft | 504 kts | 135° |
| 2026-05-01 15:10 | 39.62135 | 19.28737 | 37052 ft | 505 kts | 135° |
| 2026-05-01 15:10 | 39.55140 | 19.38964 | 37068 ft | 506 kts | 135° |
| 2026-05-01 15:11 | 39.48135 | 19.49177 | 37079 ft | 506 kts | 136° |
| 2026-05-01 15:12 | 39.43462 | 19.55976 | 37039 ft | 506 kts | 136° |
| 2026-05-01 15:12 | 39.36416 | 19.66166 | 37044 ft | 507 kts | 136° |
| 2026-05-01 15:14 | 39.24640 | 19.83161 | 37058 ft | 508 kts | 137° |
| 2026-05-01 15:14 | 39.17547 | 19.93334 | 37060 ft | 509 kts | 137° |
| 2026-05-01 15:15 | 39.08065 | 20.06898 | 37040 ft | 510 kts | 137° |
| 2026-05-01 15:16 | 38.98573 | 20.20402 | 37055 ft | 511 kts | 137° |
| 2026-05-01 15:18 | 38.86940 | 20.37737 | 37064 ft | 514 kts | 135° |
| 2026-05-01 15:19 | 38.77709 | 20.51709 | 37055 ft | 513 kts | 136° |
| 2026-05-01 15:19 | 38.71502 | 20.60938 | 37063 ft | 514 kts | 136° |
| 2026-05-01 15:20 | 38.64516 | 20.71356 | 37059 ft | 514 kts | 136° |
| 2026-05-01 15:21 | 38.59865 | 20.78297 | 37057 ft | 514 kts | 136° |
| 2026-05-01 15:21 | 38.55200 | 20.85219 | 37016 ft | 514 kts | 137° |
| 2026-05-01 15:22 | 38.48183 | 20.95590 | 37038 ft | 515 kts | 137° |
| 2026-05-01 15:22 | 38.43496 | 21.02501 | 37046 ft | 516 kts | 137° |
| 2026-05-01 15:23 | 38.38801 | 21.09425 | 37050 ft | 516 kts | 137° |
| 2026-05-01 15:23 | 38.34108 | 21.16337 | 37059 ft | 516 kts | 137° |
| 2026-05-01 15:24 | 38.29398 | 21.23234 | 37054 ft | 517 kts | 137° |
| 2026-05-01 15:24 | 38.24682 | 21.30124 | 37025 ft | 516 kts | 137° |
| 2026-05-01 15:25 | 38.19969 | 21.37014 | 37031 ft | 516 kts | 137° |
| 2026-05-01 15:25 | 38.15232 | 21.43867 | 36818 ft | 514 kts | 140° |
| 2026-05-01 15:26 | 38.12770 | 21.47143 | 36135 ft | 512 kts | 142° |
| 2026-05-01 15:26 | 38.10214 | 21.50295 | 35483 ft | 511 kts | 145° |
| 2026-05-01 15:26 | 38.07606 | 21.53364 | 34857 ft | 511 kts | 146° |
| 2026-05-01 15:26 | 38.04980 | 21.56408 | 34249 ft | 513 kts | 146° |
| 2026-05-01 15:27 | 38.02351 | 21.59475 | 33511 ft | 514 kts | 146° |
| 2026-05-01 15:27 | 37.99732 | 21.62587 | 32719 ft | 518 kts | 145° |
| 2026-05-01 15:27 | 37.97117 | 21.65745 | 31886 ft | 521 kts | 144° |
| 2026-05-01 15:28 | 37.91881 | 21.72157 | 30375 ft | 527 kts | 144° |
| 2026-05-01 15:28 | 37.89244 | 21.75389 | 29519 ft | 529 kts | 144° |
| 2026-05-01 15:28 | 37.86592 | 21.78626 | 28716 ft | 530 kts | 144° |
| 2026-05-01 15:29 | 37.81278 | 21.85065 | 27093 ft | 527 kts | 144° |
| 2026-05-01 15:29 | 37.78625 | 21.88256 | 26225 ft | 527 kts | 143° |
| 2026-05-01 15:29 | 37.73320 | 21.94637 | 24610 ft | 526 kts | 143° |
| 2026-05-01 15:30 | 37.68048 | 22.00981 | 23173 ft | 515 kts | 142° |
| 2026-05-01 15:31 | 37.57927 | 22.13151 | 19766 ft | 458 kts | 142° |
| 2026-05-01 15:31 | 37.53623 | 22.18334 | 18873 ft | 405 kts | 142° |
| 2026-05-01 15:32 | 37.49794 | 22.22907 | 18123 ft | 360 kts | 142° |
| 2026-05-01 15:32 | 37.46177 | 22.27120 | 17163 ft | 346 kts | 149° |
| 2026-05-01 15:33 | 37.39993 | 22.30633 | 16475 ft | 316 kts | 182° |
| 2026-05-01 15:34 | 37.34290 | 22.28346 | 14095 ft | 280 kts | 223° |